Birmingham, Illinois
Current Conditions -  °F | °C
As of 1:35 AM on Saturday 29 Nov 2014 (Local Time) from KMQB Reporting Station
Clear Clear  
Wind Chill: 28°   Ceiling: Unl
Heat Index: 35°   Visibility: 10mi
Dew Point: 32°   Wind: 8mph
Humidity: 90%   Direction: 160°SSE
Pressure: 29.77"   Gusts: NA
Location:  40.2814°N, 90.8526°W
Report Text: KMQB 290735Z AUTO 16007KT 10SM CLR 02/00 A2977 RMK AO2 T00150000
Loading
Personal Weather Stations






























Interactive Weather Map New forecast layout! Learn more

10-Day Weather Forecast

Advertisements
Track Severe Weather on mobile